Time;durP1;ratioP1;P1;durP2;ratioP2;P2;SDS_P1;SDS_P2;PMS_P1;PMS_P2;Temp;Humidity;BMP_temperature;BMP_pressure;BME280_temperature;BME280_humidity;BME280_pressure;Samples;Min_cycle;Max_cycle;Signal;HPM_P1;HPM_P2
2022/09/04 00:02:27;;;;;;;;;;;;;;;16.92;47.11;101206.44;4878697;29;1191;-56
2022/09/04 00:04:59;;;;;;;;;;;;;;;16.86;46.80;101201.97;4875128;29;1163;-55
2022/09/04 00:07:24;;;;;;;;;;;;;;;17.34;47.06;101205.53;4879602;29;1037;-55
2022/09/04 00:10:10;;;;;;;;;;;;;;;17.10;47.93;101202.41;4878439;29;1278;-56
2022/09/04 00:12:49;;;;;;;;;;;;;;;16.96;47.58;101202.06;4877439;29;1072;-53
2022/09/04 00:15:19;;;;;;;;;;;;;;;16.86;47.04;101205.53;4878975;29;2267;-54
2022/09/04 00:17:54;;;;;;;;;;;;;;;16.90;46.33;101211.34;4878556;29;1986;-54
2022/09/04 00:20:27;;;;;;;;;;;;;;;16.83;46.24;101213.47;4877148;29;1214;-56
2022/09/04 00:23:13;;;;;;;;;;;;;;;16.74;46.40;101211.22;4876168;29;1095;-55
2022/09/04 00:25:56;;;;;;;;;;;;;;;16.67;46.09;101207.88;4875555;29;1581;-57
2022/09/04 00:28:34;;;;;;;;;;;;;;;16.60;46.12;101205.34;4878645;29;1211;-56
2022/09/04 00:31:14;;;;;;;;;;;;;;;17.15;46.31;101207.91;4874578;29;1180;-57
2022/09/04 00:33:53;;;;;;;;;;;;;;;17.22;47.92;101200.28;4876885;29;1289;-56
2022/09/04 00:36:18;;;;;;;;;;;;;;;17.04;47.73;101203.47;4881388;29;1103;-57
2022/09/04 00:38:46;;;;;;;;;;;;;;;17.00;47.07;101208.69;4877984;29;1984;-57
2022/09/04 00:41:15;;;;;;;;;;;;;;;16.76;46.77;101203.56;4875081;29;1389;-57
2022/09/04 00:44:06;;;;;;;;;;;;;;;17.83;47.53;101214.50;4874572;29;1075;-57
2022/09/04 00:46:32;;;;;;;;;;;;;;;17.32;48.05;101199.50;4843116;29;2704;-56
2022/09/04 00:48:57;;;;;;;;;;;;;;;17.10;47.74;101196.91;4875893;29;1215;-56
2022/09/04 00:51:39;;;;;;;;;;;;;;;17.07;47.23;101203.75;4874663;29;1028;-56
2022/09/04 00:54:04;;;;;;;;;;;;;;;16.91;46.81;101200.13;4877847;29;1136;-56
2022/09/04 00:56:42;;;;;;;;;;;;;;;16.90;46.37;101203.09;4881146;29;1021;-56
2022/09/04 00:59:17;;;;;;;;;;;;;;;16.78;46.34;101195.03;4876976;29;1935;-56
2022/09/04 01:01:43;;;;;;;;;;;;;;;16.79;46.21;101201.34;4875395;29;969;-55
2022/09/04 01:04:17;;;;;;;;;;;;;;;16.72;45.89;101205.16;4871259;29;1287;-55
2022/09/04 01:06:42;;;;;;;;;;;;;;;16.61;46.23;101208.94;4875832;29;1065;-56
2022/09/04 01:09:07;;;;;;;;;;;;;;;16.73;45.65;101205.97;4876827;29;1107;-54
2022/09/04 01:11:40;;;;;;;;;;;;;;;16.65;45.80;101199.09;4868057;29;882;-55
2022/09/04 01:14:09;;;;;;;;;;;;;;;16.69;45.74;101200.22;4867455;29;1096;-56
2022/09/04 01:16:36;;;;;;;;;;;;;;;16.64;45.69;101197.41;4870986;29;2392;-56
2022/09/04 01:19:04;;;;;;;;;;;;;;;16.60;45.50;101199.84;4879596;29;1993;-55
2022/09/04 01:21:48;;;;;;;;;;;;;;;17.41;46.73;101205.31;4877926;29;1192;-55
2022/09/04 01:24:32;;;;;;;;;;;;;;;16.90;47.84;101203.09;4869743;29;954;-54
2022/09/04 01:27:05;;;;;;;;;;;;;;;16.83;47.16;101199.72;4883494;29;1001;-56
2022/09/04 01:29:50;;;;;;;;;;;;;;;16.89;46.58;101201.47;4880763;29;1064;-56
2022/09/04 01:32:20;;;;;;;;;;;;;;;16.74;46.52;101191.16;4876384;29;985;-57
2022/09/04 01:35:04;;;;;;;;;;;;;;;16.69;46.34;101191.13;4883851;29;1124;-56
2022/09/04 01:38:01;;;;;;;;;;;;;;;16.63;46.23;101187.53;4886048;29;1983;-57
2022/09/04 01:40:39;;;;;;;;;;;;;;;17.35;47.86;101190.72;4855251;29;1512;-57
2022/09/04 01:43:09;;;;;;;;;;;;;;;16.89;47.97;101191.28;4887104;29;1131;-57
2022/09/04 01:46:03;;;;;;;;;;;;;;;16.88;47.08;101188.78;4879548;29;2401;-57
2022/09/04 01:48:38;;;;;;;;;;;;;;;17.06;46.97;101206.78;4869339;29;1257;-57
2022/09/04 01:51:27;;;;;;;;;;;;;;;17.29;48.00;101208.25;4882068;29;1025;-56
2022/09/04 01:54:00;;;;;;;;;;;;;;;17.04;47.47;101209.78;4862073;29;1076;-56
2022/09/04 01:56:28;;;;;;;;;;;;;;;16.89;47.07;101212.44;4883762;29;977;-53
2022/09/04 01:59:26;;;;;;;;;;;;;;;16.80;46.46;101219.50;4886166;29;1960;-54
2022/09/04 02:01:53;;;;;;;;;;;;;;;16.81;45.93;101215.66;4857389;29;1200;-56
2022/09/04 02:04:30;;;;;;;;;;;;;;;17.52;46.98;101215.25;4885602;29;1096;-55
2022/09/04 02:06:59;;;;;;;;;;;;;;;17.08;47.83;101221.91;4884317;29;1136;-56
2022/09/04 02:09:28;;;;;;;;;;;;;;;16.96;47.15;101215.78;4876845;29;985;-56
2022/09/04 02:11:58;;;;;;;;;;;;;;;16.86;46.68;101219.28;4880236;29;1060;-56
2022/09/04 02:14:26;;;;;;;;;;;;;;;16.77;46.22;101221.69;4876456;29;2350;-57
2022/09/04 02:16:55;;;;;;;;;;;;;;;16.80;45.78;101220.31;4878337;29;1960;-57
2022/09/04 02:19:24;;;;;;;;;;;;;;;16.65;45.94;101222.94;4881398;29;1041;-57
2022/09/04 02:21:50;;;;;;;;;;;;;;;16.73;45.63;101239.78;4875583;29;1152;-57
2022/09/04 02:24:42;;;;;;;;;;;;;;;16.63;45.46;101238.88;4882766;29;1183;-57
2022/09/04 02:27:09;;;;;;;;;;;;;;;16.59;45.27;101244.03;4863786;29;1201;-57
2022/09/04 02:29:58;;;;;;;;;;;;;;;17.51;47.06;101251.25;4880730;29;1100;-57
2022/09/04 02:32:47;;;;;;;;;;;;;;;16.88;47.58;101250.06;4871524;29;1196;-54
2022/09/04 02:35:12;;;;;;;;;;;;;;;16.83;46.87;101251.91;4869219;29;1440;-56
2022/09/04 02:37:41;;;;;;;;;;;;;;;16.75;46.60;101258.75;4885397;29;1919;-56
2022/09/04 02:40:17;;;;;;;;;;;;;;;16.79;45.92;101250.78;4866844;29;1084;-56
2022/09/04 02:42:46;;;;;;;;;;;;;;;17.12;46.50;101265.34;4865679;29;1045;-57
2022/09/04 02:45:15;;;;;;;;;;;;;;;17.30;47.68;101277.81;4871373;29;2236;-56
2022/09/04 02:47:47;;;;;;;;;;;;;;;16.95;47.15;101277.31;4878733;29;921;-56
2022/09/04 02:50:23;;;;;;;;;;;;;;;17.75;47.47;101282.72;4878478;29;1219;-56
2022/09/04 02:53:08;;;;;;;;;;;;;;;17.15;48.07;101282.09;4880192;29;996;-56
2022/09/04 02:55:44;;;;;;;;;;;;;;;16.95;47.29;101276.50;4872246;29;985;-56
2022/09/04 02:58:26;;;;;;;;;;;;;;;16.93;46.62;101279.50;4880770;29;1918;-56
2022/09/04 03:00:53;;;;;;;;;;;;;;;16.96;46.23;101284.47;4876918;29;1100;-57
2022/09/04 03:03:21;;;;;;;;;;;;;;;16.81;46.29;101276.09;4883263;29;1115;-57
2022/09/04 03:05:52;;;;;;;;;;;;;;;16.65;46.12;101281.44;4873193;29;1004;-57
2022/09/04 03:08:19;;;;;;;;;;;;;;;16.76;45.96;101269.47;4877346;29;999;-57
2022/09/04 03:10:47;;;;;;;;;;;;;;;17.21;47.75;101280.25;4873385;29;1274;-57
2022/09/04 03:13:19;;;;;;;;;;;;;;;16.96;47.36;101272.63;4879384;29;977;-57
2022/09/04 03:16:00;;;;;;;;;;;;;;;18.21;47.53;101276.53;4880096;29;2346;-56
2022/09/04 03:18:28;;;;;;;;;;;;;;;17.38;48.58;101272.63;4867941;29;1989;-57
2022/09/04 03:20:57;;;;;;;;;;;;;;;17.17;47.98;101279.94;4882399;29;1154;-57
2022/09/04 03:23:26;;;;;;;;;;;;;;;17.09;46.91;101273.00;4872127;29;1136;-57
2022/09/04 03:26:02;;;;;;;;;;;;;;;16.89;46.66;101287.44;4882002;29;1164;-58
2022/09/04 03:28:34;;;;;;;;;;;;;;;16.87;46.33;101291.50;4879977;29;1044;-56
2022/09/04 03:31:09;;;;;;;;;;;;;;;16.88;45.92;101293.16;4881128;29;1096;-56
2022/09/04 03:33:38;;;;;;;;;;;;;;;16.82;45.63;101300.53;4875566;29;982;-57
2022/09/04 03:36:14;;;;;;;;;;;;;;;17.65;46.92;101307.41;4879411;29;992;-57
2022/09/04 03:38:39;;;;;;;;;;;;;;;17.14;47.47;101296.97;4871711;29;1915;-57
2022/09/04 03:41:05;;;;;;;;;;;;;;;16.99;46.93;101307.84;4877660;29;1041;-57
2022/09/04 03:43:49;;;;;;;;;;;;;;;16.94;46.39;101289.38;4874182;29;1178;-56
2022/09/04 03:46:33;;;;;;;;;;;;;;;16.84;46.05;101303.03;4876669;29;2319;-54
2022/09/04 03:49:11;;;;;;;;;;;;;;;17.66;47.31;101308.25;4868787;29;1781;-53
2022/09/04 03:51:55;;;;;;;;;;;;;;;17.08;47.79;101298.84;4851913;29;1168;-53
2022/09/04 03:54:27;;;;;;;;;;;;;;;16.91;47.53;101309.16;4875620;29;958;-49
2022/09/04 03:56:55;;;;;;;;;;;;;;;17.00;46.72;101312.22;4881090;29;1187;-54
2022/09/04 03:59:24;;;;;;;;;;;;;;;16.92;46.39;101311.63;4880568;29;1382;-52
2022/09/04 04:02:08;;;;;;;;;;;;;;;17.02;48.19;101310.88;4869362;29;1247;-53
2022/09/04 04:04:41;;;;;;;;;;;;;;;17.00;48.60;101313.06;4873012;29;1476;-49
2022/09/04 04:07:11;;;;;;;;;;;;;;;17.10;48.65;101313.13;4864746;29;1049;-50
2022/09/04 04:09:56;;;;;;;;;;;;;;;17.08;48.35;101309.84;4877769;29;1272;-55
2022/09/04 04:12:43;;;;;;;;;;;;;;;17.00;47.55;101320.47;4878501;29;1352;-55
2022/09/04 04:15:08;;;;;;;;;;;;;;;16.84;47.18;101327.75;4877345;29;2464;-60
2022/09/04 04:17:52;;;;;;;;;;;;;;;16.87;46.52;101316.22;4868433;29;1907;-56
2022/09/04 04:20:19;;;;;;;;;;;;;;;17.62;48.04;101329.94;4875185;29;1306;-56
2022/09/04 04:22:53;;;;;;;;;;;;;;;17.09;48.61;101327.97;4876915;29;1253;-55
2022/09/04 04:25:20;;;;;;;;;;;;;;;17.03;47.41;101328.22;4875481;29;1124;-56
2022/09/04 04:27:56;;;;;;;;;;;;;;;16.93;47.01;101324.28;4879183;29;1155;-58
2022/09/04 04:30:22;;;;;;;;;;;;;;;16.80;46.77;101334.84;4881742;29;1040;-58
2022/09/04 04:32:50;;;;;;;;;;;;;;;16.80;46.18;101330.16;4880259;29;1160;-56
2022/09/04 04:35:18;;;;;;;;;;;;;;;16.85;45.92;101329.41;4875870;29;1028;-56
2022/09/04 04:38:00;;;;;;;;;;;;;;;17.54;47.35;101338.69;4879442;29;1971;-59
2022/09/04 04:40:31;;;;;;;;;;;;;;;17.04;47.61;101325.19;4874002;29;1044;-57
2022/09/04 04:42:58;;;;;;;;;;;;;;;16.95;46.90;101328.69;4876984;29;962;-60
2022/09/04 04:45:50;;;;;;;;;;;;;;;16.80;46.86;101338.41;4870335;29;2198;-56
2022/09/04 04:48:18;;;;;;;;;;;;;;;16.85;46.13;101327.47;4866382;29;1266;-61
2022/09/04 04:50:58;;;;;;;;;;;;;;;16.66;46.07;101324.31;4879402;29;1099;-61
2022/09/04 04:53:41;;;;;;;;;;;;;;;16.73;45.91;101316.69;4874386;29;988;-58
2022/09/04 04:56:18;;;;;;;;;;;;;;;16.76;45.52;101326.31;4870263;29;1200;-61
2022/09/04 04:58:43;;;;;;;;;;;;;;;16.64;45.65;101334.72;4875866;29;1903;-55
2022/09/04 05:01:12;;;;;;;;;;;;;;;16.58;45.58;101324.78;4871720;29;966;-58
2022/09/04 05:03:52;;;;;;;;;;;;;;;16.54;45.82;101326.38;4876013;29;1069;-56
2022/09/04 05:06:41;;;;;;;;;;;;;;;16.55;45.50;101341.75;4875964;29;1107;-57
2022/09/04 05:09:12;;;;;;;;;;;;;;;17.23;47.10;101333.00;4871560;29;1165;-58
2022/09/04 05:11:56;;;;;;;;;;;;;;;16.90;46.90;101341.28;4869142;29;1227;-58
2022/09/04 05:14:31;;;;;;;;;;;;;;;16.69;46.70;101337.50;4875517;29;2351;-59
2022/09/04 05:17:06;;;;;;;;;;;;;;;16.72;46.32;101338.91;4875951;29;1045;-57
2022/09/04 05:19:33;;;;;;;;;;;;;;;16.56;46.08;101338.78;4875333;29;1048;-60
2022/09/04 05:22:19;;;;;;;;;;;;;;;16.58;45.88;101341.25;4863889;29;1077;-57
2022/09/04 05:25:04;;;;;;;;;;;;;;;16.60;45.80;101344.56;4874146;29;871;-56
2022/09/04 05:27:32;;;;;;;;;;;;;;;16.61;45.40;101351.72;4870415;29;1143;-61
2022/09/04 05:30:02;;;;;;;;;;;;;;;16.58;45.38;101349.50;4875170;29;1198;-58
2022/09/04 05:32:38;;;;;;;;;;;;;;;16.56;45.33;101357.13;4869215;29;1056;-60
2022/09/04 05:35:15;;;;;;;;;;;;;;;16.46;45.50;101351.56;4871797;29;1103;-58
2022/09/04 05:37:40;;;;;;;;;;;;;;;16.56;45.33;101351.66;4876624;29;1906;-58
2022/09/04 05:40:25;;;;;;;;;;;;;;;16.47;45.60;101361.47;4874925;29;1175;-59
2022/09/04 05:43:00;;;;;;;;;;;;;;;17.24;45.03;101345.66;4878905;29;1025;-57
2022/09/04 05:45:26;;;;;;;;;;;;;;;17.44;45.48;101350.47;4877908;29;2434;-57
2022/09/04 05:48:00;;;;;;;;;;;;;;;17.10;47.00;101365.34;4875839;29;1000;-57
2022/09/04 05:50:32;;;;;;;;;;;;;;;16.92;47.95;101365.75;4880361;29;1000;-58
2022/09/04 05:53:15;;;;;;;;;;;;;;;16.77;48.56;101370.00;4869562;29;965;-57
2022/09/04 05:55:59;;;;;;;;;;;;;;;16.75;48.91;101363.91;4872024;29;1191;-60
2022/09/04 05:58:25;;;;;;;;;;;;;;;16.66;49.59;101365.50;4871591;29;1985;-59
2022/09/04 06:01:13;;;;;;;;;;;;;;;16.55;50.46;101377.44;4871941;29;981;-57
2022/09/04 06:04:08;;;;;;;;;;;;;;;16.52;50.53;101378.81;4873034;29;1131;-56
2022/09/04 06:06:45;;;;;;;;;;;;;;;16.47;51.01;101373.25;4860541;29;1223;-59
2022/09/04 06:09:27;;;;;;;;;;;;;;;16.41;51.31;101371.53;4872350;29;1305;-58
2022/09/04 06:11:58;;;;;;;;;;;;;;;16.40;51.80;101376.19;4869578;29;989;-58
2022/09/04 06:14:24;;;;;;;;;;;;;;;16.36;51.82;101375.06;4872568;29;2335;-58
2022/09/04 06:17:15;;;;;;;;;;;;;;;16.28;52.21;101377.44;4873007;29;1029;-58
2022/09/04 06:19:53;;;;;;;;;;;;;;;16.24;52.54;101382.59;4882384;29;1266;-59
2022/09/04 06:22:25;;;;;;;;;;;;;;;16.24;52.71;101380.69;4881849;29;1730;-56
2022/09/04 06:25:00;;;;;;;;;;;;;;;16.18;52.86;101380.88;4879409;29;1313;-61
2022/09/04 06:27:47;;;;;;;;;;;;;;;16.17;53.00;101376.47;4880877;29;1294;-59
2022/09/04 06:30:13;;;;;;;;;;;;;;;16.11;53.31;101383.00;4882203;29;1373;-57
2022/09/04 06:32:57;;;;;;;;;;;;;;;16.10;53.39;101381.31;4881682;29;1037;-59
2022/09/04 06:35:22;;;;;;;;;;;;;;;16.04;53.73;101384.00;4878694;29;1218;-56
2022/09/04 06:37:48;;;;;;;;;;;;;;;16.02;54.05;101379.84;4877317;29;1907;-57
2022/09/04 06:40:32;;;;;;;;;;;;;;;16.02;53.93;101377.94;4876530;29;1289;-55
2022/09/04 06:43:04;;;;;;;;;;;;;;;15.98;54.03;101379.53;4878507;29;1021;-58
2022/09/04 06:46:02;;;;;;;;;;;;;;;16.01;53.97;101379.03;4878972;29;2214;-57
2022/09/04 06:48:46;;;;;;;;;;;;;;;15.97;54.42;101393.53;4856753;29;1330;-57
2022/09/04 06:51:27;;;;;;;;;;;;;;;17.29;51.92;101389.66;4879011;29;1198;-58
2022/09/04 06:53:52;;;;;;;;;;;;;;;16.82;53.18;101387.63;4878092;29;1561;-57
2022/09/04 06:56:26;;;;;;;;;;;;;;;16.54;53.85;101384.03;4879072;29;1270;-56
2022/09/04 06:58:57;;;;;;;;;;;;;;;16.36;54.54;101387.94;4880502;29;1907;-58
2022/09/04 07:01:29;;;;;;;;;;;;;;;16.30;54.74;101383.47;4879351;29;875;-60
2022/09/04 07:04:18;;;;;;;;;;;;;;;16.20;54.83;101384.19;4876834;29;1020;-59
2022/09/04 07:06:46;;;;;;;;;;;;;;;16.18;54.97;101389.13;4847770;29;1427;-56
2022/09/04 07:09:20;;;;;;;;;;;;;;;16.13;54.95;101397.28;4877839;29;994;-58
2022/09/04 07:11:55;;;;;;;;;;;;;;;16.07;54.97;101394.47;4875779;29;1206;-57
2022/09/04 07:14:20;;;;;;;;;;;;;;;16.05;55.23;101395.81;4872776;29;2282;-57
2022/09/04 07:16:51;;;;;;;;;;;;;;;16.03;55.40;101404.31;4876185;29;1128;-57
2022/09/04 07:19:20;;;;;;;;;;;;;;;16.65;54.64;101405.03;4880477;29;1911;-56
2022/09/04 07:21:50;;;;;;;;;;;;;;;16.94;54.15;101410.25;4869223;29;1202;-58
2022/09/04 07:24:25;;;;;;;;;;;;;;;16.53;55.28;101398.84;4875903;29;1040;-56
2022/09/04 07:27:14;;;;;;;;;;;;;;;16.34;55.79;101401.94;4880514;29;1069;-57
2022/09/04 07:30:09;;;;;;;;;;;;;;;16.26;55.75;101402.38;4878862;29;1248;-57
2022/09/04 07:32:34;;;;;;;;;;;;;;;16.17;55.76;101404.75;4868878;29;1242;-56
2022/09/04 07:35:00;;;;;;;;;;;;;;;16.15;55.67;101419.81;4877629;29;1187;-60
2022/09/04 07:37:26;;;;;;;;;;;;;;;16.11;55.64;101421.41;4876907;29;1911;-58
2022/09/04 07:39:55;;;;;;;;;;;;;;;16.05;55.84;101415.84;4869486;29;1092;-57
2022/09/04 07:42:29;;;;;;;;;;;;;;;16.04;55.73;101414.19;4880931;29;1048;-56
2022/09/04 07:45:00;;;;;;;;;;;;;;;16.00;55.68;101413.03;4878922;29;2315;-56
2022/09/04 07:47:33;;;;;;;;;;;;;;;15.98;55.78;101406.16;4874955;29;973;-58
2022/09/04 07:49:58;;;;;;;;;;;;;;;15.98;55.70;101401.50;4875437;29;882;-59
2022/09/04 07:52:27;;;;;;;;;;;;;;;16.09;55.83;101413.44;4876600;29;1068;-56
2022/09/04 07:54:58;;;;;;;;;;;;;;;17.58;53.14;101414.06;4878063;29;1020;-56
2022/09/04 07:57:35;;;;;;;;;;;;;;;16.77;55.40;101405.69;4878280;29;1977;-56
2022/09/04 08:00:01;;;;;;;;;;;;;;;16.51;56.08;101411.97;4879321;29;1017;-57
2022/09/04 08:02:29;;;;;;;;;;;;;;;16.38;56.16;101405.84;4869401;29;947;-59
2022/09/04 08:04:55;;;;;;;;;;;;;;;16.30;56.12;101413.66;4881962;29;1111;-56
2022/09/04 08:07:41;;;;;;;;;;;;;;;16.26;56.23;101413.38;4876921;29;1115;-56
2022/09/04 08:10:13;;;;;;;;;;;;;;;16.21;56.16;101405.06;4863396;29;1046;-57
2022/09/04 08:12:55;;;;;;;;;;;;;;;16.17;56.01;101409.41;4873340;29;1108;-56
2022/09/04 08:15:21;;;;;;;;;;;;;;;16.07;56.34;101408.19;4866568;29;2253;-59
2022/09/04 08:17:53;;;;;;;;;;;;;;;16.05;56.29;101407.63;4876618;29;1954;-58
2022/09/04 08:20:37;;;;;;;;;;;;;;;16.05;56.16;101417.78;4878799;29;998;-58
2022/09/04 08:23:11;;;;;;;;;;;;;;;16.00;56.19;101407.53;4877605;29;1301;-57
2022/09/04 08:26:03;;;;;;;;;;;;;;;15.96;55.99;101398.16;4873990;29;1235;-58
2022/09/04 08:28:35;;;;;;;;;;;;;;;15.95;56.27;101401.16;4875670;29;1437;-58
2022/09/04 08:31:06;;;;;;;;;;;;;;;15.91;56.12;101385.22;4878819;29;1068;-57
2022/09/04 08:33:36;;;;;;;;;;;;;;;17.41;54.32;101386.75;4870047;29;894;-57
2022/09/04 08:36:03;;;;;;;;;;;;;;;16.81;55.69;101381.28;4881319;29;1021;-58
2022/09/04 08:38:31;;;;;;;;;;;;;;;16.52;56.17;101386.19;4880482;29;1907;-58
2022/09/04 08:41:03;;;;;;;;;;;;;;;16.38;56.57;101396.75;4882481;29;1099;-59
2022/09/04 08:43:44;;;;;;;;;;;;;;;16.27;56.61;101386.75;4876074;29;1033;-58
2022/09/04 08:46:14;;;;;;;;;;;;;;;16.21;56.26;101380.38;4875088;29;2614;-58
2022/09/04 08:49:01;;;;;;;;;;;;;;;16.17;56.55;101392.94;4876274;29;1113;-59
2022/09/04 08:51:35;;;;;;;;;;;;;;;16.16;56.23;101391.28;4873296;29;1052;-59
2022/09/04 08:54:01;;;;;;;;;;;;;;;16.10;56.36;101370.34;4876735;29;1214;-58
2022/09/04 08:56:36;;;;;;;;;;;;;;;16.03;56.28;101371.38;4874828;29;1176;-58
2022/09/04 08:59:18;;;;;;;;;;;;;;;16.76;55.55;101382.06;4878046;29;1895;-57
2022/09/04 09:02:02;;;;;;;;;;;;;;;17.08;55.37;101375.78;4878448;29;1168;-57
2022/09/04 09:04:27;;;;;;;;;;;;;;;16.54;56.50;101379.38;4880541;29;1224;-57
2022/09/04 09:07:12;;;;;;;;;;;;;;;16.38;56.91;101372.03;4875835;29;1194;-58
2022/09/04 09:09:56;;;;;;;;;;;;;;;16.31;56.54;101369.50;4877705;29;1083;-57
2022/09/04 09:12:24;;;;;;;;;;;;;;;16.22;56.59;101368.31;4876738;29;1175;-57
2022/09/04 09:15:08;;;;;;;;;;;;;;;16.20;56.46;101373.22;4876217;29;2344;-58
2022/09/04 09:17:34;;;;;;;;;;;;;;;16.15;56.74;101364.94;4880433;29;1907;-57
2022/09/04 09:20:02;;;;;;;;;;;;;;;16.15;56.62;101362.19;4868114;29;1293;-58
2022/09/04 09:22:28;;;;;;;;;;;;;;;16.08;56.59;101344.00;4880147;29;1160;-57
2022/09/04 09:25:12;;;;;;;;;;;;;;;16.10;56.18;101343.75;4879342;29;1085;-58
2022/09/04 09:27:37;;;;;;;;;;;;;;;17.33;55.20;101366.06;4877686;29;982;-63
2022/09/04 09:30:12;;;;;;;;;;;;;;;16.99;56.12;101355.38;4878066;29;1123;-57
2022/09/04 09:32:52;;;;;;;;;;;;;;;16.59;56.78;101357.47;4880176;29;973;-59
2022/09/04 09:35:24;;;;;;;;;;;;;;;16.46;57.05;101360.59;4874550;29;1037;-61
2022/09/04 09:37:56;;;;;;;;;;;;;;;16.36;56.77;101353.09;4874324;29;1906;-57
2022/09/04 09:40:35;;;;;;;;;;;;;;;16.36;56.63;101363.25;4871756;29;1088;-60
2022/09/04 09:43:19;;;;;;;;;;;;;;;16.24;56.83;101368.88;4875191;29;961;-61
2022/09/04 09:45:59;;;;;;;;;;;;;;;16.22;56.87;101368.31;4874037;29;2495;-60
2022/09/04 09:48:43;;;;;;;;;;;;;;;16.15;56.56;101373.16;4883981;29;1096;-62
2022/09/04 09:51:09;;;;;;;;;;;;;;;16.12;56.75;101363.53;4872238;29;895;-62
2022/09/04 09:53:53;;;;;;;;;;;;;;;16.07;56.58;101364.31;4878733;29;993;-60
2022/09/04 09:56:27;;;;;;;;;;;;;;;16.05;56.33;101366.47;4874860;29;1474;-64
2022/09/04 09:58:53;;;;;;;;;;;;;;;16.01;56.56;101364.50;4875308;29;1911;-62
2022/09/04 10:01:21;;;;;;;;;;;;;;;16.88;55.94;101375.56;4879080;29;1029;-64
2022/09/04 10:04:05;;;;;;;;;;;;;;;16.89;56.19;101372.59;4867124;29;1112;-62
2022/09/04 10:06:38;;;;;;;;;;;;;;;16.49;57.32;101373.00;4874028;29;1420;-60
2022/09/04 10:09:03;;;;;;;;;;;;;;;16.37;57.13;101375.91;4882860;29;1127;-62
2022/09/04 10:11:47;;;;;;;;;;;;;;;16.29;56.94;101377.16;4881702;29;1068;-64
2022/09/04 10:14:13;;;;;;;;;;;;;;;16.18;57.15;101369.91;4878041;29;1559;-64
2022/09/04 10:16:47;;;;;;;;;;;;;;;16.20;56.99;101370.47;4880411;29;2727;-66
2022/09/04 10:19:16;;;;;;;;;;;;;;;16.16;56.71;101377.56;4876559;29;1976;-59
2022/09/04 10:21:53;;;;;;;;;;;;;;;16.12;56.89;101373.66;4870707;29;1098;-60
2022/09/04 10:24:25;;;;;;;;;;;;;;;16.06;56.63;101373.63;4880583;29;1207;-59
2022/09/04 10:26:53;;;;;;;;;;;;;;;16.68;56.88;101385.28;4876037;29;1412;-57
2022/09/04 10:29:35;;;;;;;;;;;;;;;17.23;56.05;101377.00;4878384;29;1270;-57
2022/09/04 10:32:12;;;;;;;;;;;;;;;16.62;57.48;101382.72;4873034;29;1044;-57
2022/09/04 10:34:57;;;;;;;;;;;;;;;16.48;57.19;101376.81;4870772;29;977;-56
2022/09/04 10:37:36;;;;;;;;;;;;;;;16.41;57.06;101372.38;4878410;29;1970;-57
2022/09/04 10:43:10;;;;;;;;;;;;;;;16.23;57.16;101375.47;4877970;29;1231;-57
2022/09/04 10:45:39;;;;;;;;;;;;;;;16.23;57.09;101376.28;4868505;29;2413;-57
2022/09/04 10:48:21;;;;;;;;;;;;;;;16.16;56.96;101377.56;4877498;29;1099;-60
2022/09/04 10:50:55;;;;;;;;;;;;;;;16.14;56.67;101374.25;4873610;29;1119;-57
2022/09/04 10:53:35;;;;;;;;;;;;;;;16.13;56.87;101376.19;4880832;29;1028;-60
2022/09/04 10:56:15;;;;;;;;;;;;;;;16.07;56.70;101382.66;4869478;29;942;-62
2022/09/04 10:58:51;;;;;;;;;;;;;;;16.04;56.55;101381.25;4880534;29;1910;-58
2022/09/04 11:01:29;;;;;;;;;;;;;;;16.52;56.92;101392.53;4882387;29;997;-55
2022/09/04 11:03:58;;;;;;;;;;;;;;;17.51;55.62;101394.22;4878210;29;1100;-55
2022/09/04 11:06:46;;;;;;;;;;;;;;;16.76;57.19;101395.78;4882134;29;1106;-53
2022/09/04 11:09:14;;;;;;;;;;;;;;;16.55;57.57;101392.00;4878436;29;970;-57
2022/09/04 11:11:40;;;;;;;;;;;;;;;16.43;57.35;101381.16;4875815;29;1021;-57
2022/09/04 11:14:20;;;;;;;;;;;;;;;16.37;57.29;101390.44;4875882;29;977;-59
2022/09/04 11:16:55;;;;;;;;;;;;;;;16.28;57.05;101383.75;4871162;29;1009;-56
2022/09/04 11:19:27;;;;;;;;;;;;;;;16.23;57.07;101379.03;4880576;29;1914;-56
2022/09/04 11:22:13;;;;;;;;;;;;;;;16.16;57.06;101370.16;4871438;29;1250;-57
2022/09/04 11:24:46;;;;;;;;;;;;;;;16.17;57.06;101381.97;4881894;29;1147;-56
2022/09/04 11:27:20;;;;;;;;;;;;;;;16.15;56.73;101384.16;4882951;29;906;-55
2022/09/04 11:29:46;;;;;;;;;;;;;;;16.12;56.79;101379.16;4879434;29;1116;-56
2022/09/04 11:32:12;;;;;;;;;;;;;;;16.10;56.88;101381.31;4872573;29;957;-58
2022/09/04 11:34:56;;;;;;;;;;;;;;;17.24;56.32;101382.22;4872998;29;957;-59
2022/09/04 11:37:32;;;;;;;;;;;;;;;16.82;57.35;101368.38;4873117;29;1899;-57
2022/09/04 11:40:11;;;;;;;;;;;;;;;16.53;57.77;101376.88;4875205;29;899;-56
2022/09/04 11:42:49;;;;;;;;;;;;;;;16.39;57.67;101380.03;4880352;29;1021;-57
2022/09/04 11:45:19;;;;;;;;;;;;;;;16.33;57.52;101375.56;4877226;29;1879;-55
2022/09/04 11:48:03;;;;;;;;;;;;;;;16.30;57.05;101373.34;4875222;29;1071;-57
2022/09/04 11:50:55;;;;;;;;;;;;;;;16.22;57.15;101371.06;4870653;29;958;-54
2022/09/04 11:53:36;;;;;;;;;;;;;;;16.16;57.14;101363.84;4877549;29;1329;-54
2022/09/04 11:56:18;;;;;;;;;;;;;;;16.19;57.17;101363.34;4869668;29;1231;-58
2022/09/04 11:58:43;;;;;;;;;;;;;;;16.10;56.85;101370.34;4868966;29;1964;-57
2022/09/04 12:01:33;;;;;;;;;;;;;;;16.10;56.88;101365.69;4870441;29;1231;-60
2022/09/04 12:03:58;;;;;;;;;;;;;;;16.08;56.73;101357.72;4864990;29;899;-58
2022/09/04 12:06:24;;;;;;;;;;;;;;;17.15;56.26;101363.72;4866863;29;1116;-60
2022/09/04 12:08:49;;;;;;;;;;;;;;;17.07;57.04;101352.13;4881206;29;945;-58
2022/09/04 12:11:33;;;;;;;;;;;;;;;16.65;57.48;101349.25;4880201;29;1159;-58
2022/09/04 12:14:18;;;;;;;;;;;;;;;16.50;57.53;101341.72;4879370;29;1001;-58
2022/09/04 12:16:56;;;;;;;;;;;;;;;16.41;57.37;101333.94;4871782;29;1024;-58
2022/09/04 12:19:40;;;;;;;;;;;;;;;16.31;57.45;101338.50;4871726;29;1907;-58
2022/09/04 12:22:14;;;;;;;;;;;;;;;16.29;57.18;101352.47;4867256;29;1002;-58
2022/09/04 12:24:58;;;;;;;;;;;;;;;16.22;57.24;101340.88;4877184;29;1100;-58
2022/09/04 12:27:42;;;;;;;;;;;;;;;16.17;57.13;101338.91;4876464;29;1087;-58
2022/09/04 12:30:22;;;;;;;;;;;;;;;16.18;57.04;101342.47;4865517;29;989;-58
2022/09/04 12:33:06;;;;;;;;;;;;;;;16.11;56.99;101339.91;4879737;29;1056;-58
2022/09/04 12:35:42;;;;;;;;;;;;;;;16.10;56.96;101345.66;4870202;29;1021;-59
2022/09/04 12:38:08;;;;;;;;;;;;;;;16.03;56.97;101343.09;4866701;29;1972;-59
2022/09/04 12:40:51;;;;;;;;;;;;;;;16.41;57.07;101346.81;4864583;29;1049;-58
2022/09/04 12:43:19;;;;;;;;;;;;;;;17.34;56.40;101340.22;4875643;29;1167;-57
2022/09/04 12:45:50;;;;;;;;;;;;;;;16.76;57.42;101337.31;4874218;29;2406;-58
2022/09/04 12:48:34;;;;;;;;;;;;;;;16.52;57.73;101350.50;4876953;29;1167;-58
2022/09/04 12:51:08;;;;;;;;;;;;;;;16.42;57.67;101345.75;4877988;29;1135;-57
2022/09/04 12:53:33;;;;;;;;;;;;;;;16.35;57.28;101340.44;4877144;29;969;-58
2022/09/04 12:56:04;;;;;;;;;;;;;;;16.30;57.10;101340.41;4871189;29;1057;-58
2022/09/04 12:58:51;;;;;;;;;;;;;;;16.26;56.93;101342.00;4872828;29;1991;-57
2022/09/04 13:01:30;;;;;;;;;;;;;;;16.21;57.11;101333.72;4875860;29;1312;-60
2022/09/04 13:04:15;;;;;;;;;;;;;;;16.11;57.07;101331.69;4866843;29;1042;-59
2022/09/04 13:07:00;;;;;;;;;;;;;;;16.09;57.11;101342.09;4874191;29;1048;-59
2022/09/04 13:09:38;;;;;;;;;;;;;;;16.08;56.94;101341.25;4877205;29;1195;-58
2022/09/04 13:12:09;;;;;;;;;;;;;;;16.05;57.00;101341.78;4872714;29;1044;-58
2022/09/04 13:14:44;;;;;;;;;;;;;;;17.12;56.48;101337.59;4874707;29;2277;-58
2022/09/04 13:17:16;;;;;;;;;;;;;;;17.00;57.29;101340.53;4867305;29;1013;-57
2022/09/04 13:19:51;;;;;;;;;;;;;;;16.62;57.85;101339.66;4864316;29;1970;-57
2022/09/04 13:22:19;;;;;;;;;;;;;;;16.51;57.44;101348.84;4874811;29;1002;-59
2022/09/04 13:24:49;;;;;;;;;;;;;;;16.43;57.59;101347.41;4874575;29;1171;-56
2022/09/04 13:27:39;;;;;;;;;;;;;;;16.33;57.45;101347.31;4876116;29;981;-56
2022/09/04 13:30:05;;;;;;;;;;;;;;;16.27;57.28;101351.06;4871915;29;1049;-55
2022/09/04 13:32:34;;;;;;;;;;;;;;;16.19;57.34;101344.94;4880397;29;1009;-58